sensor_id;sensor_type;location;lat;lon;timestamp;P1;durP1;ratioP1;P2;durP2;ratioP2
10061;SDS011;5070;52.382;5.270;2023-11-22T00:00:34;7.70;;;7.00;;
10061;SDS011;5070;52.382;5.270;2023-11-22T00:03:02;13.07;;;6.32;;
10061;SDS011;5070;52.382;5.270;2023-11-22T00:05:30;7.40;;;5.18;;
10061;SDS011;5070;52.382;5.270;2023-11-22T00:08:00;9.20;;;6.05;;
10061;SDS011;5070;52.382;5.270;2023-11-22T00:10:28;8.90;;;6.38;;
10061;SDS011;5070;52.382;5.270;2023-11-22T00:12:56;13.27;;;5.80;;
10061;SDS011;5070;52.382;5.270;2023-11-22T00:15:25;7.30;;;4.65;;
10061;SDS011;5070;52.382;5.270;2023-11-22T00:17:53;9.27;;;6.28;;
10061;SDS011;5070;52.382;5.270;2023-11-22T00:20:21;7.10;;;6.70;;
10061;SDS011;5070;52.382;5.270;2023-11-22T00:22:49;9.00;;;6.38;;
10061;SDS011;5070;52.382;5.270;2023-11-22T00:25:19;4.38;;;4.03;;
10061;SDS011;5070;52.382;5.270;2023-11-22T00:27:47;12.73;;;6.00;;
10061;SDS011;5070;52.382;5.270;2023-11-22T00:30:15;6.28;;;4.53;;
10061;SDS011;5070;52.382;5.270;2023-11-22T00:32:43;5.65;;;5.35;;
10061;SDS011;5070;52.382;5.270;2023-11-22T00:35:11;5.93;;;5.63;;
10061;SDS011;5070;52.382;5.270;2023-11-22T00:37:39;5.75;;;5.45;;
10061;SDS011;5070;52.382;5.270;2023-11-22T00:40:08;6.07;;;5.78;;
10061;SDS011;5070;52.382;5.270;2023-11-22T00:42:39;6.63;;;6.22;;
10061;SDS011;5070;52.382;5.270;2023-11-22T00:45:09;8.43;;;5.55;;
10061;SDS011;5070;52.382;5.270;2023-11-22T00:47:38;6.72;;;5.50;;
10061;SDS011;5070;52.382;5.270;2023-11-22T00:50:06;6.53;;;6.13;;
10061;SDS011;5070;52.382;5.270;2023-11-22T00:52:35;6.63;;;6.22;;
10061;SDS011;5070;52.382;5.270;2023-11-22T00:55:03;5.38;;;4.70;;
10061;SDS011;5070;52.382;5.270;2023-11-22T00:57:32;6.80;;;4.63;;
10061;SDS011;5070;52.382;5.270;2023-11-22T01:00:01;4.85;;;4.55;;
10061;SDS011;5070;52.382;5.270;2023-11-22T01:02:31;5.20;;;4.18;;
10061;SDS011;5070;52.382;5.270;2023-11-22T01:04:59;7.13;;;5.72;;
10061;SDS011;5070;52.382;5.270;2023-11-22T01:07:27;4.88;;;4.00;;
10061;SDS011;5070;52.382;5.270;2023-11-22T01:09:55;4.90;;;4.60;;
10061;SDS011;5070;52.382;5.270;2023-11-22T01:12:23;5.18;;;4.88;;
10061;SDS011;5070;52.382;5.270;2023-11-22T01:14:51;4.68;;;4.38;;
10061;SDS011;5070;52.382;5.270;2023-11-22T01:17:21;6.90;;;6.50;;
10061;SDS011;5070;52.382;5.270;2023-11-22T01:19:52;9.23;;;4.68;;
10061;SDS011;5070;52.382;5.270;2023-11-22T01:22:20;9.52;;;5.60;;
10061;SDS011;5070;52.382;5.270;2023-11-22T01:24:48;5.75;;;4.65;;
10061;SDS011;5070;52.382;5.270;2023-11-22T01:27:17;6.80;;;6.00;;
10061;SDS011;5070;52.382;5.270;2023-11-22T01:29:45;9.93;;;4.40;;
10061;SDS011;5070;52.382;5.270;2023-11-22T01:32:13;4.10;;;3.88;;
10061;SDS011;5070;52.382;5.270;2023-11-22T01:34:44;8.75;;;5.35;;
10061;SDS011;5070;52.382;5.270;2023-11-22T01:37:12;4.82;;;4.53;;
10061;SDS011;5070;52.382;5.270;2023-11-22T01:39:40;4.10;;;3.90;;
10061;SDS011;5070;52.382;5.270;2023-11-22T01:42:09;5.65;;;5.40;;
10061;SDS011;5070;52.382;5.270;2023-11-22T01:44:37;5.30;;;5.05;;
10061;SDS011;5070;52.382;5.270;2023-11-22T01:47:05;3.65;;;3.45;;
10061;SDS011;5070;52.382;5.270;2023-11-22T01:49:36;6.50;;;3.70;;
10061;SDS011;5070;52.382;5.270;2023-11-22T01:52:05;5.55;;;5.25;;
10061;SDS011;5070;52.382;5.270;2023-11-22T01:54:34;9.98;;;4.20;;
10061;SDS011;5070;52.382;5.270;2023-11-22T01:57:02;4.43;;;4.03;;
10061;SDS011;5070;52.382;5.270;2023-11-22T01:59:34;13.98;;;6.40;;
10061;SDS011;5070;52.382;5.270;2023-11-22T02:02:02;7.20;;;5.47;;
10061;SDS011;5070;52.382;5.270;2023-11-22T02:04:31;13.43;;;6.95;;
10061;SDS011;5070;52.382;5.270;2023-11-22T02:06:59;5.18;;;3.92;;
10061;SDS011;5070;52.382;5.270;2023-11-22T02:09:28;6.65;;;5.85;;
10061;SDS011;5070;52.382;5.270;2023-11-22T02:11:57;4.10;;;3.90;;
10061;SDS011;5070;52.382;5.270;2023-11-22T02:14:25;5.07;;;4.78;;
10061;SDS011;5070;52.382;5.270;2023-11-22T02:16:53;5.75;;;4.28;;
10061;SDS011;5070;52.382;5.270;2023-11-22T02:19:22;5.38;;;5.07;;
10061;SDS011;5070;52.382;5.270;2023-11-22T02:21:50;4.75;;;4.45;;
10061;SDS011;5070;52.382;5.270;2023-11-22T02:24:19;5.75;;;4.72;;
10061;SDS011;5070;52.382;5.270;2023-11-22T02:26:47;6.70;;;6.28;;
10061;SDS011;5070;52.382;5.270;2023-11-22T02:29:15;6.43;;;6.05;;
10061;SDS011;5070;52.382;5.270;2023-11-22T02:31:45;5.90;;;4.35;;
10061;SDS011;5070;52.382;5.270;2023-11-22T02:34:14;5.70;;;5.40;;
10061;SDS011;5070;52.382;5.270;2023-11-22T02:36:42;10.40;;;4.93;;
10061;SDS011;5070;52.382;5.270;2023-11-22T02:39:25;12.10;;;5.07;;
10061;SDS011;5070;52.382;5.270;2023-11-22T02:42:03;4.50;;;4.20;;
10061;SDS011;5070;52.382;5.270;2023-11-22T02:44:31;5.20;;;4.90;;
10061;SDS011;5070;52.382;5.270;2023-11-22T02:46:59;5.43;;;5.13;;
10061;SDS011;5070;52.382;5.270;2023-11-22T02:49:27;5.65;;;5.40;;
10061;SDS011;5070;52.382;5.270;2023-11-22T02:51:56;5.88;;;4.10;;
10061;SDS011;5070;52.382;5.270;2023-11-22T02:54:25;6.45;;;4.90;;
10061;SDS011;5070;52.382;5.270;2023-11-22T02:56:53;4.53;;;3.60;;
10061;SDS011;5070;52.382;5.270;2023-11-22T02:59:21;6.22;;;5.72;;
10061;SDS011;5070;52.382;5.270;2023-11-22T03:01:50;5.43;;;4.25;;
10061;SDS011;5070;52.382;5.270;2023-11-22T03:04:17;14.55;;;4.97;;
10061;SDS011;5070;52.382;5.270;2023-11-22T03:06:45;5.47;;;4.53;;
10061;SDS011;5070;52.382;5.270;2023-11-22T03:09:14;8.57;;;5.03;;
10061;SDS011;5070;52.382;5.270;2023-11-22T03:11:43;6.20;;;4.00;;
10061;SDS011;5070;52.382;5.270;2023-11-22T03:14:12;10.63;;;5.18;;
10061;SDS011;5070;52.382;5.270;2023-11-22T03:16:40;5.90;;;5.55;;
10061;SDS011;5070;52.382;5.270;2023-11-22T03:19:10;3.83;;;3.65;;
10061;SDS011;5070;52.382;5.270;2023-11-22T03:21:39;4.18;;;3.92;;
10061;SDS011;5070;52.382;5.270;2023-11-22T03:24:10;4.57;;;4.28;;
10061;SDS011;5070;52.382;5.270;2023-11-22T03:26:38;6.45;;;3.97;;
10061;SDS011;5070;52.382;5.270;2023-11-22T03:29:08;9.35;;;6.25;;
10061;SDS011;5070;52.382;5.270;2023-11-22T03:31:36;6.50;;;6.10;;
10061;SDS011;5070;52.382;5.270;2023-11-22T03:34:05;6.00;;;4.72;;
10061;SDS011;5070;52.382;5.270;2023-11-22T03:36:33;4.68;;;4.40;;
10061;SDS011;5070;52.382;5.270;2023-11-22T03:39:01;5.45;;;4.43;;
10061;SDS011;5070;52.382;5.270;2023-11-22T03:41:29;5.15;;;4.85;;
10061;SDS011;5070;52.382;5.270;2023-11-22T03:43:57;7.63;;;5.75;;
10061;SDS011;5070;52.382;5.270;2023-11-22T03:46:27;5.90;;;4.60;;
10061;SDS011;5070;52.382;5.270;2023-11-22T03:48:55;16.50;;;6.38;;
10061;SDS011;5070;52.382;5.270;2023-11-22T03:51:23;5.60;;;5.30;;
10061;SDS011;5070;52.382;5.270;2023-11-22T03:53:51;6.07;;;5.38;;
10061;SDS011;5070;52.382;5.270;2023-11-22T03:56:19;5.15;;;4.85;;
10061;SDS011;5070;52.382;5.270;2023-11-22T03:58:47;4.22;;;4.00;;
10061;SDS011;5070;52.382;5.270;2023-11-22T04:01:15;4.55;;;4.25;;
10061;SDS011;5070;52.382;5.270;2023-11-22T04:03:46;5.60;;;5.32;;
10061;SDS011;5070;52.382;5.270;2023-11-22T04:06:17;5.88;;;4.55;;
10061;SDS011;5070;52.382;5.270;2023-11-22T04:08:46;6.45;;;4.97;;
10061;SDS011;5070;52.382;5.270;2023-11-22T04:11:14;5.25;;;4.95;;
10061;SDS011;5070;52.382;5.270;2023-11-22T04:13:43;5.40;;;5.10;;
10061;SDS011;5070;52.382;5.270;2023-11-22T04:16:11;6.10;;;5.78;;
10061;SDS011;5070;52.382;5.270;2023-11-22T04:18:40;6.15;;;5.80;;
10061;SDS011;5070;52.382;5.270;2023-11-22T04:21:11;7.45;;;7.05;;
10061;SDS011;5070;52.382;5.270;2023-11-22T04:23:39;6.88;;;5.05;;
10061;SDS011;5070;52.382;5.270;2023-11-22T04:26:07;4.22;;;3.97;;
10061;SDS011;5070;52.382;5.270;2023-11-22T04:28:35;5.32;;;5.03;;
10061;SDS011;5070;52.382;5.270;2023-11-22T04:31:03;7.00;;;6.60;;
10061;SDS011;5070;52.382;5.270;2023-11-22T04:33:31;5.90;;;5.60;;
10061;SDS011;5070;52.382;5.270;2023-11-22T04:35:59;5.35;;;5.05;;
10061;SDS011;5070;52.382;5.270;2023-11-22T04:38:29;6.15;;;5.80;;
10061;SDS011;5070;52.382;5.270;2023-11-22T04:40:57;5.72;;;5.45;;
10061;SDS011;5070;52.382;5.270;2023-11-22T04:43:25;6.78;;;6.38;;
10061;SDS011;5070;52.382;5.270;2023-11-22T04:45:53;5.35;;;5.05;;
10061;SDS011;5070;52.382;5.270;2023-11-22T04:48:21;4.85;;;4.55;;
10061;SDS011;5070;52.382;5.270;2023-11-22T04:50:49;6.68;;;6.28;;
10061;SDS011;5070;52.382;5.270;2023-11-22T04:53:18;4.65;;;4.35;;
10061;SDS011;5070;52.382;5.270;2023-11-22T04:55:48;5.68;;;5.38;;
10061;SDS011;5070;52.382;5.270;2023-11-22T04:58:16;7.35;;;6.95;;
10061;SDS011;5070;52.382;5.270;2023-11-22T05:00:44;7.25;;;6.40;;
10061;SDS011;5070;52.382;5.270;2023-11-22T05:03:12;6.68;;;6.13;;
10061;SDS011;5070;52.382;5.270;2023-11-22T05:05:40;5.35;;;4.85;;
10061;SDS011;5070;52.382;5.270;2023-11-22T05:08:08;6.60;;;6.20;;
10061;SDS011;5070;52.382;5.270;2023-11-22T05:10:36;9.52;;;8.70;;
10061;SDS011;5070;52.382;5.270;2023-11-22T05:13:08;6.15;;;5.80;;
10061;SDS011;5070;52.382;5.270;2023-11-22T05:15:36;6.10;;;5.80;;
10061;SDS011;5070;52.382;5.270;2023-11-22T05:18:04;5.95;;;5.65;;
10061;SDS011;5070;52.382;5.270;2023-11-22T05:20:33;5.72;;;5.43;;
10061;SDS011;5070;52.382;5.270;2023-11-22T05:23:01;7.55;;;6.57;;
10061;SDS011;5070;52.382;5.270;2023-11-22T05:25:30;6.78;;;6.38;;
10061;SDS011;5070;52.382;5.270;2023-11-22T05:27:58;6.75;;;4.70;;
10061;SDS011;5070;52.382;5.270;2023-11-22T05:30:28;5.85;;;5.55;;
10061;SDS011;5070;52.382;5.270;2023-11-22T05:32:56;4.20;;;3.90;;
10061;SDS011;5070;52.382;5.270;2023-11-22T05:35:24;6.82;;;4.20;;
10061;SDS011;5070;52.382;5.270;2023-11-22T05:37:52;3.80;;;3.60;;
10061;SDS011;5070;52.382;5.270;2023-11-22T05:40:20;5.18;;;4.90;;
10061;SDS011;5070;52.382;5.270;2023-11-22T05:42:48;5.95;;;4.57;;
10061;SDS011;5070;52.382;5.270;2023-11-22T05:45:16;5.80;;;5.00;;
10061;SDS011;5070;52.382;5.270;2023-11-22T05:47:45;5.65;;;5.35;;
10061;SDS011;5070;52.382;5.270;2023-11-22T05:50:14;6.05;;;5.72;;
10061;SDS011;5070;52.382;5.270;2023-11-22T05:52:42;4.05;;;3.70;;
10061;SDS011;5070;52.382;5.270;2023-11-22T05:55:10;4.38;;;4.07;;
10061;SDS011;5070;52.382;5.270;2023-11-22T05:57:40;7.03;;;4.93;;
10061;SDS011;5070;52.382;5.270;2023-11-22T06:00:08;4.40;;;4.07;;
10061;SDS011;5070;52.382;5.270;2023-11-22T06:02:38;7.53;;;3.83;;
10061;SDS011;5070;52.382;5.270;2023-11-22T06:05:08;6.85;;;3.53;;
10061;SDS011;5070;52.382;5.270;2023-11-22T06:07:37;3.45;;;2.92;;
10061;SDS011;5070;52.382;5.270;2023-11-22T06:10:06;6.10;;;4.53;;
10061;SDS011;5070;52.382;5.270;2023-11-22T06:12:34;4.97;;;4.68;;
10061;SDS011;5070;52.382;5.270;2023-11-22T06:15:02;5.95;;;5.65;;
10061;SDS011;5070;52.382;5.270;2023-11-22T06:17:31;5.45;;;4.43;;
10061;SDS011;5070;52.382;5.270;2023-11-22T06:19:59;4.70;;;4.40;;
10061;SDS011;5070;52.382;5.270;2023-11-22T06:22:31;4.57;;;3.92;;
10061;SDS011;5070;52.382;5.270;2023-11-22T06:24:58;6.80;;;3.63;;
10061;SDS011;5070;52.382;5.270;2023-11-22T06:27:26;6.55;;;5.03;;
10061;SDS011;5070;52.382;5.270;2023-11-22T06:29:54;5.10;;;4.78;;
10061;SDS011;5070;52.382;5.270;2023-11-22T06:32:24;4.32;;;4.03;;
10061;SDS011;5070;52.382;5.270;2023-11-22T06:34:52;5.28;;;4.68;;
10061;SDS011;5070;52.382;5.270;2023-11-22T06:37:20;5.43;;;4.50;;
10061;SDS011;5070;52.382;5.270;2023-11-22T06:39:49;5.47;;;5.18;;
10061;SDS011;5070;52.382;5.270;2023-11-22T06:42:17;7.18;;;4.35;;
10061;SDS011;5070;52.382;5.270;2023-11-22T06:44:45;7.25;;;6.85;;
10061;SDS011;5070;52.382;5.270;2023-11-22T06:47:14;4.20;;;3.95;;
10061;SDS011;5070;52.382;5.270;2023-11-22T06:49:42;11.45;;;4.93;;
10061;SDS011;5070;52.382;5.270;2023-11-22T06:52:10;6.65;;;5.90;;
10061;SDS011;5070;52.382;5.270;2023-11-22T06:54:39;6.93;;;4.38;;
10061;SDS011;5070;52.382;5.270;2023-11-22T06:57:09;5.72;;;4.40;;
10061;SDS011;5070;52.382;5.270;2023-11-22T06:59:37;4.50;;;4.20;;
10061;SDS011;5070;52.382;5.270;2023-11-22T07:02:05;4.38;;;4.00;;
10061;SDS011;5070;52.382;5.270;2023-11-22T07:04:34;6.40;;;6.03;;
10061;SDS011;5070;52.382;5.270;2023-11-22T07:07:02;7.45;;;7.05;;
10061;SDS011;5070;52.382;5.270;2023-11-22T07:09:30;5.50;;;5.20;;
10061;SDS011;5070;52.382;5.270;2023-11-22T07:11:59;6.40;;;6.03;;
10061;SDS011;5070;52.382;5.270;2023-11-22T07:14:28;6.13;;;5.82;;
10061;SDS011;5070;52.382;5.270;2023-11-22T07:16:56;6.10;;;4.28;;
10061;SDS011;5070;52.382;5.270;2023-11-22T07:19:24;7.15;;;6.75;;
10061;SDS011;5070;52.382;5.270;2023-11-22T07:21:52;5.53;;;5.22;;
10061;SDS011;5070;52.382;5.270;2023-11-22T07:24:21;7.55;;;7.15;;
10061;SDS011;5070;52.382;5.270;2023-11-22T07:26:50;4.35;;;4.05;;
10061;SDS011;5070;52.382;5.270;2023-11-22T07:29:18;9.68;;;5.95;;
10061;SDS011;5070;52.382;5.270;2023-11-22T07:31:49;3.95;;;3.75;;
10061;SDS011;5070;52.382;5.270;2023-11-22T07:34:18;7.18;;;4.43;;
10061;SDS011;5070;52.382;5.270;2023-11-22T07:36:46;4.88;;;4.57;;
10061;SDS011;5070;52.382;5.270;2023-11-22T07:39:13;6.47;;;4.30;;
10061;SDS011;5070;52.382;5.270;2023-11-22T07:41:48;3.67;;;3.47;;
10061;SDS011;5070;52.382;5.270;2023-11-22T07:44:17;3.95;;;3.75;;
10061;SDS011;5070;52.382;5.270;2023-11-22T07:46:52;3.85;;;3.65;;
10061;SDS011;5070;52.382;5.270;2023-11-22T07:49:20;5.90;;;5.60;;
10061;SDS011;5070;52.382;5.270;2023-11-22T07:51:48;5.28;;;4.97;;
10061;SDS011;5070;52.382;5.270;2023-11-22T07:54:18;4.28;;;4.00;;
10061;SDS011;5070;52.382;5.270;2023-11-22T07:56:48;5.68;;;4.45;;
10061;SDS011;5070;52.382;5.270;2023-11-22T07:59:18;6.90;;;4.63;;
10061;SDS011;5070;52.382;5.270;2023-11-22T08:01:46;5.35;;;4.80;;
10061;SDS011;5070;52.382;5.270;2023-11-22T08:04:16;4.40;;;4.10;;
10061;SDS011;5070;52.382;5.270;2023-11-22T08:06:44;8.60;;;5.55;;
10061;SDS011;5070;52.382;5.270;2023-11-22T08:09:14;4.63;;;4.32;;
10061;SDS011;5070;52.382;5.270;2023-11-22T08:11:43;7.95;;;4.95;;
10061;SDS011;5070;52.382;5.270;2023-11-22T08:14:11;5.05;;;4.75;;
10061;SDS011;5070;52.382;5.270;2023-11-22T08:16:39;8.77;;;4.75;;
10061;SDS011;5070;52.382;5.270;2023-11-22T08:19:09;4.22;;;3.97;;
10061;SDS011;5070;52.382;5.270;2023-11-22T08:21:39;5.50;;;5.20;;
10061;SDS011;5070;52.382;5.270;2023-11-22T08:24:08;4.20;;;3.78;;
10061;SDS011;5070;52.382;5.270;2023-11-22T08:26:39;6.05;;;4.50;;
10061;SDS011;5070;52.382;5.270;2023-11-22T08:29:07;4.10;;;3.88;;
10061;SDS011;5070;52.382;5.270;2023-11-22T08:31:35;4.05;;;3.75;;
10061;SDS011;5070;52.382;5.270;2023-11-22T08:34:03;5.30;;;4.28;;
10061;SDS011;5070;52.382;5.270;2023-11-22T08:36:33;7.00;;;4.05;;
10061;SDS011;5070;52.382;5.270;2023-11-22T08:39:02;4.72;;;4.30;;
10061;SDS011;5070;52.382;5.270;2023-11-22T08:41:31;7.28;;;4.50;;
10061;SDS011;5070;52.382;5.270;2023-11-22T08:43:59;6.07;;;5.00;;
10061;SDS011;5070;52.382;5.270;2023-11-22T08:46:27;7.68;;;4.88;;
10061;SDS011;5070;52.382;5.270;2023-11-22T08:48:55;4.78;;;4.47;;
10061;SDS011;5070;52.382;5.270;2023-11-22T08:51:23;4.93;;;4.63;;
10061;SDS011;5070;52.382;5.270;2023-11-22T08:53:51;4.75;;;4.45;;
10061;SDS011;5070;52.382;5.270;2023-11-22T08:56:21;5.70;;;4.18;;
10061;SDS011;5070;52.382;5.270;2023-11-22T08:58:49;5.65;;;4.30;;
10061;SDS011;5070;52.382;5.270;2023-11-22T09:01:17;4.95;;;3.92;;
10061;SDS011;5070;52.382;5.270;2023-11-22T09:03:45;4.20;;;3.28;;
10061;SDS011;5070;52.382;5.270;2023-11-22T09:06:13;4.10;;;3.88;;
10061;SDS011;5070;52.382;5.270;2023-11-22T09:08:42;3.22;;;2.95;;
10061;SDS011;5070;52.382;5.270;2023-11-22T09:11:12;5.85;;;5.57;;
10061;SDS011;5070;52.382;5.270;2023-11-22T09:13:43;3.78;;;3.40;;
10061;SDS011;5070;52.382;5.270;2023-11-22T09:16:11;6.45;;;4.35;;
10061;SDS011;5070;52.382;5.270;2023-11-22T09:18:39;4.78;;;4.20;;
10061;SDS011;5070;52.382;5.270;2023-11-22T09:21:07;6.55;;;4.00;;
10061;SDS011;5070;52.382;5.270;2023-11-22T09:23:36;5.13;;;4.35;;
10061;SDS011;5070;52.382;5.270;2023-11-22T09:26:05;4.70;;;4.40;;
10061;SDS011;5070;52.382;5.270;2023-11-22T09:28:33;8.25;;;4.70;;
10061;SDS011;5070;52.382;5.270;2023-11-22T09:31:02;5.32;;;5.03;;
10061;SDS011;5070;52.382;5.270;2023-11-22T09:33:33;5.15;;;4.75;;
10061;SDS011;5070;52.382;5.270;2023-11-22T09:36:01;4.82;;;4.47;;
10061;SDS011;5070;52.382;5.270;2023-11-22T09:38:34;6.40;;;3.97;;
10061;SDS011;5070;52.382;5.270;2023-11-22T09:41:03;5.97;;;5.18;;
10061;SDS011;5070;52.382;5.270;2023-11-22T09:43:34;6.80;;;4.18;;
10061;SDS011;5070;52.382;5.270;2023-11-22T09:46:04;3.80;;;3.30;;
10061;SDS011;5070;52.382;5.270;2023-11-22T09:48:35;4.75;;;4.45;;
10061;SDS011;5070;52.382;5.270;2023-11-22T09:51:08;7.80;;;3.95;;
10061;SDS011;5070;52.382;5.270;2023-11-22T09:53:45;4.50;;;4.20;;
10061;SDS011;5070;52.382;5.270;2023-11-22T09:56:19;5.75;;;3.92;;
10061;SDS011;5070;52.382;5.270;2023-11-22T09:58:47;5.90;;;4.18;;
10061;SDS011;5070;52.382;5.270;2023-11-22T10:01:22;10.88;;;5.13;;
10061;SDS011;5070;52.382;5.270;2023-11-22T10:03:50;4.40;;;4.10;;
10061;SDS011;5070;52.382;5.270;2023-11-22T10:06:19;5.60;;;4.75;;
10061;SDS011;5070;52.382;5.270;2023-11-22T10:08:47;8.18;;;4.28;;
10061;SDS011;5070;52.382;5.270;2023-11-22T10:11:16;4.47;;;3.90;;
10061;SDS011;5070;52.382;5.270;2023-11-22T10:13:46;3.78;;;2.70;;
10061;SDS011;5070;52.382;5.270;2023-11-22T10:16:16;6.47;;;5.18;;
10061;SDS011;5070;52.382;5.270;2023-11-22T10:18:48;4.72;;;3.83;;
10061;SDS011;5070;52.382;5.270;2023-11-22T10:21:20;5.53;;;3.50;;
10061;SDS011;5070;52.382;5.270;2023-11-22T10:23:50;8.23;;;5.00;;
10061;SDS011;5070;52.382;5.270;2023-11-22T10:26:23;5.03;;;4.00;;
10061;SDS011;5070;52.382;5.270;2023-11-22T10:28:51;5.00;;;2.80;;
10061;SDS011;5070;52.382;5.270;2023-11-22T10:31:19;6.05;;;4.70;;
10061;SDS011;5070;52.382;5.270;2023-11-22T10:33:50;9.15;;;5.20;;
10061;SDS011;5070;52.382;5.270;2023-11-22T10:36:19;4.72;;;4.03;;
10061;SDS011;5070;52.382;5.270;2023-11-22T10:38:49;3.67;;;3.47;;
10061;SDS011;5070;52.382;5.270;2023-11-22T10:41:19;6.07;;;4.40;;
10061;SDS011;5070;52.382;5.270;2023-11-22T10:43:48;4.18;;;3.92;;
10061;SDS011;5070;52.382;5.270;2023-11-22T10:46:22;5.82;;;4.18;;
10061;SDS011;5070;52.382;5.270;2023-11-22T10:48:56;11.48;;;3.97;;
10061;SDS011;5070;52.382;5.270;2023-11-22T10:51:26;5.75;;;3.35;;
10061;SDS011;5070;52.382;5.270;2023-11-22T10:53:59;4.65;;;3.83;;
10061;SDS011;5070;52.382;5.270;2023-11-22T10:56:31;4.35;;;3.35;;
10061;SDS011;5070;52.382;5.270;2023-11-22T10:59:04;5.22;;;3.65;;
10061;SDS011;5070;52.382;5.270;2023-11-22T11:01:34;6.45;;;3.90;;
10061;SDS011;5070;52.382;5.270;2023-11-22T11:04:08;13.27;;;7.25;;
10061;SDS011;5070;52.382;5.270;2023-11-22T11:06:38;8.65;;;6.75;;
10061;SDS011;5070;52.382;5.270;2023-11-22T11:09:07;9.63;;;7.97;;
10061;SDS011;5070;52.382;5.270;2023-11-22T11:11:37;10.25;;;9.07;;
10061;SDS011;5070;52.382;5.270;2023-11-22T11:14:06;9.90;;;8.30;;
10061;SDS011;5070;52.382;5.270;2023-11-22T11:16:38;11.32;;;8.13;;
10061;SDS011;5070;52.382;5.270;2023-11-22T11:19:09;7.30;;;6.90;;
10061;SDS011;5070;52.382;5.270;2023-11-22T11:21:38;14.27;;;10.10;;
10061;SDS011;5070;52.382;5.270;2023-11-22T11:24:06;9.88;;;9.18;;
10061;SDS011;5070;52.382;5.270;2023-11-22T11:26:34;11.90;;;9.93;;
10061;SDS011;5070;52.382;5.270;2023-11-22T11:29:05;9.52;;;7.28;;
10061;SDS011;5070;52.382;5.270;2023-11-22T11:31:38;26.98;;;9.05;;
10061;SDS011;5070;52.382;5.270;2023-11-22T11:34:07;11.77;;;8.48;;
10061;SDS011;5070;52.382;5.270;2023-11-22T11:36:37;9.73;;;8.93;;
10061;SDS011;5070;52.382;5.270;2023-11-22T11:39:06;16.27;;;10.73;;
10061;SDS011;5070;52.382;5.270;2023-11-22T11:41:41;18.05;;;9.10;;
10061;SDS011;5070;52.382;5.270;2023-11-22T11:44:10;9.18;;;8.35;;
10061;SDS011;5070;52.382;5.270;2023-11-22T11:46:38;10.88;;;7.85;;
10061;SDS011;5070;52.382;5.270;2023-11-22T11:49:07;8.35;;;7.03;;
10061;SDS011;5070;52.382;5.270;2023-11-22T11:51:40;10.05;;;6.65;;
10061;SDS011;5070;52.382;5.270;2023-11-22T11:54:09;8.68;;;7.43;;
10061;SDS011;5070;52.382;5.270;2023-11-22T11:56:43;11.85;;;7.47;;
10061;SDS011;5070;52.382;5.270;2023-11-22T11:59:12;9.25;;;6.90;;
10061;SDS011;5070;52.382;5.270;2023-11-22T12:01:40;9.43;;;6.57;;
10061;SDS011;5070;52.382;5.270;2023-11-22T12:04:10;12.80;;;6.22;;
10061;SDS011;5070;52.382;5.270;2023-11-22T12:06:38;7.32;;;6.95;;
10061;SDS011;5070;52.382;5.270;2023-11-22T12:09:06;8.82;;;6.15;;
10061;SDS011;5070;52.382;5.270;2023-11-22T12:11:34;8.90;;;7.90;;
10061;SDS011;5070;52.382;5.270;2023-11-22T12:14:02;10.40;;;7.10;;
10061;SDS011;5070;52.382;5.270;2023-11-22T12:16:31;6.85;;;6.45;;
10061;SDS011;5070;52.382;5.270;2023-11-22T12:19:00;7.68;;;6.80;;
10061;SDS011;5070;52.382;5.270;2023-11-22T12:21:30;15.70;;;9.02;;
10061;SDS011;5070;52.382;5.270;2023-11-22T12:23:59;8.25;;;6.10;;
10061;SDS011;5070;52.382;5.270;2023-11-22T12:26:29;10.27;;;4.88;;
10061;SDS011;5070;52.382;5.270;2023-11-22T12:28:59;6.97;;;5.40;;
10061;SDS011;5070;52.382;5.270;2023-11-22T12:31:31;6.40;;;5.15;;
10061;SDS011;5070;52.382;5.270;2023-11-22T12:34:02;5.32;;;5.03;;
10061;SDS011;5070;52.382;5.270;2023-11-22T12:36:34;5.18;;;4.80;;
10061;SDS011;5070;52.382;5.270;2023-11-22T12:39:06;9.18;;;6.10;;
10061;SDS011;5070;52.382;5.270;2023-11-22T12:41:43;6.95;;;4.53;;
10061;SDS011;5070;52.382;5.270;2023-11-22T12:44:21;9.93;;;6.80;;
10061;SDS011;5070;52.382;5.270;2023-11-22T12:46:50;9.65;;;5.80;;
10061;SDS011;5070;52.382;5.270;2023-11-22T12:49:23;6.43;;;4.60;;
10061;SDS011;5070;52.382;5.270;2023-11-22T12:51:53;8.05;;;5.85;;
10061;SDS011;5070;52.382;5.270;2023-11-22T12:54:23;5.00;;;4.70;;
10061;SDS011;5070;52.382;5.270;2023-11-22T12:56:51;8.70;;;6.75;;
10061;SDS011;5070;52.382;5.270;2023-11-22T12:59:25;6.75;;;5.78;;
10061;SDS011;5070;52.382;5.270;2023-11-22T13:01:57;9.77;;;5.43;;
10061;SDS011;5070;52.382;5.270;2023-11-22T13:04:27;8.13;;;6.82;;
10061;SDS011;5070;52.382;5.270;2023-11-22T13:06:59;10.80;;;5.97;;
10061;SDS011;5070;52.382;5.270;2023-11-22T13:09:27;5.90;;;5.60;;
10061;SDS011;5070;52.382;5.270;2023-11-22T13:11:56;8.68;;;6.13;;
10061;SDS011;5070;52.382;5.270;2023-11-22T13:14:24;6.97;;;6.45;;
10061;SDS011;5070;52.382;5.270;2023-11-22T13:16:58;4.40;;;4.10;;
10061;SDS011;5070;52.382;5.270;2023-11-22T13:19:26;4.93;;;4.53;;
10061;SDS011;5070;52.382;5.270;2023-11-22T13:21:54;5.65;;;5.35;;
10061;SDS011;5070;52.382;5.270;2023-11-22T13:24:23;6.47;;;4.78;;
10061;SDS011;5070;52.382;5.270;2023-11-22T13:26:52;11.57;;;5.70;;
10061;SDS011;5070;52.382;5.270;2023-11-22T13:29:20;10.85;;;6.47;;
10061;SDS011;5070;52.382;5.270;2023-11-22T13:31:48;7.88;;;6.00;;
10061;SDS011;5070;52.382;5.270;2023-11-22T13:34:16;7.50;;;7.10;;
10061;SDS011;5070;52.382;5.270;2023-11-22T13:36:44;5.70;;;5.20;;
10061;SDS011;5070;52.382;5.270;2023-11-22T13:39:12;5.65;;;4.20;;
10061;SDS011;5070;52.382;5.270;2023-11-22T13:41:42;5.43;;;4.78;;
10061;SDS011;5070;52.382;5.270;2023-11-22T13:44:10;5.85;;;4.90;;
10061;SDS011;5070;52.382;5.270;2023-11-22T13:46:40;9.18;;;6.18;;
10061;SDS011;5070;52.382;5.270;2023-11-22T13:49:07;6.07;;;5.85;;
10061;SDS011;5070;52.382;5.270;2023-11-22T13:51:35;5.63;;;5.32;;
10061;SDS011;5070;52.382;5.270;2023-11-22T13:54:03;15.07;;;6.15;;
10061;SDS011;5070;52.382;5.270;2023-11-22T13:56:32;9.68;;;4.55;;
10061;SDS011;5070;52.382;5.270;2023-11-22T13:59:01;6.40;;;5.43;;
10061;SDS011;5070;52.382;5.270;2023-11-22T14:01:29;4.65;;;4.35;;
10061;SDS011;5070;52.382;5.270;2023-11-22T14:03:59;8.00;;;3.92;;
10061;SDS011;5070;52.382;5.270;2023-11-22T14:06:29;10.70;;;6.00;;
10061;SDS011;5070;52.382;5.270;2023-11-22T14:08:57;5.15;;;4.85;;
10061;SDS011;5070;52.382;5.270;2023-11-22T14:11:25;6.93;;;6.32;;
10061;SDS011;5070;52.382;5.270;2023-11-22T14:13:53;6.38;;;4.72;;
10061;SDS011;5070;52.382;5.270;2023-11-22T14:16:22;6.68;;;6.28;;
10061;SDS011;5070;52.382;5.270;2023-11-22T14:18:52;8.05;;;6.00;;
10061;SDS011;5070;52.382;5.270;2023-11-22T14:21:20;5.55;;;4.53;;
10061;SDS011;5070;52.382;5.270;2023-11-22T14:23:48;7.55;;;5.32;;
10061;SDS011;5070;52.382;5.270;2023-11-22T14:26:19;6.65;;;6.25;;
10061;SDS011;5070;52.382;5.270;2023-11-22T14:28:49;4.13;;;3.90;;
10061;SDS011;5070;52.382;5.270;2023-11-22T14:31:17;5.07;;;4.78;;
10061;SDS011;5070;52.382;5.270;2023-11-22T14:33:47;3.88;;;3.70;;
10061;SDS011;5070;52.382;5.270;2023-11-22T14:36:15;8.52;;;5.78;;
10061;SDS011;5070;52.382;5.270;2023-11-22T14:38:43;7.32;;;4.55;;
10061;SDS011;5070;52.382;5.270;2023-11-22T14:41:13;6.15;;;5.85;;
10061;SDS011;5070;52.382;5.270;2023-11-22T14:43:43;5.00;;;4.70;;
10061;SDS011;5070;52.382;5.270;2023-11-22T14:46:11;8.20;;;5.68;;
10061;SDS011;5070;52.382;5.270;2023-11-22T14:48:39;9.10;;;5.47;;
10061;SDS011;5070;52.382;5.270;2023-11-22T14:51:08;7.13;;;4.38;;
10061;SDS011;5070;52.382;5.270;2023-11-22T14:53:36;5.85;;;4.72;;
10061;SDS011;5070;52.382;5.270;2023-11-22T14:56:06;5.20;;;4.90;;
10061;SDS011;5070;52.382;5.270;2023-11-22T14:58:36;7.43;;;5.13;;
10061;SDS011;5070;52.382;5.270;2023-11-22T15:01:06;11.98;;;6.15;;
10061;SDS011;5070;52.382;5.270;2023-11-22T15:03:35;5.78;;;5.13;;
10061;SDS011;5070;52.382;5.270;2023-11-22T15:06:03;8.90;;;5.32;;
10061;SDS011;5070;52.382;5.270;2023-11-22T15:08:33;7.72;;;6.82;;
10061;SDS011;5070;52.382;5.270;2023-11-22T15:11:01;7.57;;;7.15;;